Time;durP1;ratioP1;P1;durP2;ratioP2;P2;SDS_P1;SDS_P2;PMS_P1;PMS_P2;Temp;Humidity;BMP_temperature;BMP_pressure;BME280_temperature;BME280_humidity;BME280_pressure;Samples;Min_cycle;Max_cycle;Signal;HPM_P1;HPM_P2
2022/11/20 00:02:02;;;;;;;;;;;;;;;8.19;64.11;94782.25;5049894;28;20059;-66
2022/11/20 00:04:27;;;;;;;;;;;;;;;9.14;61.78;94784.91;5049965;28;20010;-66
2022/11/20 00:06:53;;;;;;;;;;;;;;;8.73;62.24;94785.88;5048421;28;20075;-66
2022/11/20 00:09:18;;;;;;;;;;;;;;;9.36;60.83;94785.66;5037936;28;20491;-65
2022/11/20 00:11:43;;;;;;;;;;;;;;;9.59;60.50;94782.97;5029632;28;20077;-66
2022/11/20 00:14:08;;;;;;;;;;;;;;;9.29;60.29;94784.53;5029896;28;20032;-66
2022/11/20 00:16:34;;;;;;;;;;;;;;;9.51;60.41;94794.31;5029255;28;20425;-66
2022/11/20 00:18:59;;;;;;;;;;;;;;;9.46;59.90;94791.81;5029683;28;20458;-65
2022/11/20 00:21:25;;;;;;;;;;;;;;;9.30;60.90;94792.19;5029639;28;20413;-65
2022/11/20 00:23:51;;;;;;;;;;;;;;;9.03;61.35;94792.34;5029648;28;20060;-66
2022/11/20 00:26:18;;;;;;;;;;;;;;;8.55;62.89;94790.28;5029213;28;20016;-65
2022/11/20 00:28:44;;;;;;;;;;;;;;;9.34;61.42;94793.16;5029564;28;20006;-65
2022/11/20 00:31:13;;;;;;;;;;;;;;;9.18;62.40;94794.63;5029515;28;20013;-65
2022/11/20 00:33:39;;;;;;;;;;;;;;;9.34;61.07;94795.03;5029561;28;20472;-66
2022/11/20 00:36:05;;;;;;;;;;;;;;;8.93;62.34;94797.88;5040544;28;20073;-65
2022/11/20 00:38:31;;;;;;;;;;;;;;;8.87;62.61;94799.09;5049056;28;20009;-65
2022/11/20 00:40:57;;;;;;;;;;;;;;;8.73;62.61;94799.13;5048009;28;20373;-66
2022/11/20 00:43:23;;;;;;;;;;;;;;;9.20;61.60;94799.63;5049603;28;20016;-66
2022/11/20 00:45:48;;;;;;;;;;;;;;;9.58;60.46;94803.44;5047614;28;20005;-65
2022/11/20 00:48:13;;;;;;;;;;;;;;;8.75;62.42;94800.41;5047139;28;20053;-66
2022/11/20 00:50:39;;;;;;;;;;;;;;;9.23;60.58;94801.69;5050435;28;20032;-66
2022/11/20 00:53:04;;;;;;;;;;;;;;;9.40;60.90;94806.28;5052911;28;20497;-66
2022/11/20 00:55:29;;;;;;;;;;;;;;;9.20;61.18;94803.06;5052637;28;20437;-66
2022/11/20 00:57:55;;;;;;;;;;;;;;;9.13;61.37;94808.00;5053273;28;20001;-66
2022/11/20 01:00:20;;;;;;;;;;;;;;;9.77;59.99;94818.34;5052035;28;20103;-65
2022/11/20 01:02:45;;;;;;;;;;;;;;;9.28;60.39;94815.59;5050996;28;20009;-65
2022/11/20 01:05:10;;;;;;;;;;;;;;;9.33;60.32;94812.81;5052645;28;20061;-66
2022/11/20 01:07:35;;;;;;;;;;;;;;;9.80;59.74;94817.75;5051795;28;20009;-66
2022/11/20 01:10:01;;;;;;;;;;;;;;;10.12;59.59;94820.03;5051310;28;20005;-65
2022/11/20 01:12:26;;;;;;;;;;;;;;;9.76;59.33;94825.53;5051709;28;20028;-66
2022/11/20 01:14:51;;;;;;;;;;;;;;;9.27;60.55;94822.00;5052125;28;20060;-66
2022/11/20 01:17:17;;;;;;;;;;;;;;;9.32;60.44;94821.09;5052746;28;20013;-66
2022/11/20 01:19:42;;;;;;;;;;;;;;;9.57;60.72;94823.13;5052645;28;20006;-66
2022/11/20 01:22:07;;;;;;;;;;;;;;;10.06;58.82;94815.97;5051142;28;20408;-66
2022/11/20 01:24:32;;;;;;;;;;;;;;;9.17;60.65;94819.59;5051689;28;20613;-66
2022/11/20 01:26:58;;;;;;;;;;;;;;;10.11;58.60;94821.13;5052094;28;20012;-66
2022/11/20 01:29:24;;;;;;;;;;;;;;;9.79;58.84;94824.16;5052586;28;20009;-66
2022/11/20 01:31:52;;;;;;;;;;;;;;;9.67;58.50;94819.38;5051546;28;20020;-67
2022/11/20 01:34:18;;;;;;;;;;;;;;;9.97;59.11;94827.66;5052301;28;20010;-67
2022/11/20 01:36:44;;;;;;;;;;;;;;;9.55;58.97;94827.16;5051899;28;20056;-67
2022/11/20 01:39:20;;;;;;;;;;;;;;;9.69;59.47;94825.19;5052196;28;20045;-67
2022/11/20 01:44:48;;;;;;;;;;;;;;;9.81;59.81;94832.59;5052612;28;20751;-67
2022/11/20 01:47:15;;;;;;;;;;;;;;;9.63;59.43;94837.03;5052025;28;20485;-69
2022/11/20 01:49:45;;;;;;;;;;;;;;;9.36;60.53;94830.00;5052038;28;20006;-66
2022/11/20 01:52:14;;;;;;;;;;;;;;;9.46;59.42;94834.28;5051925;28;20010;-66
2022/11/20 01:54:43;;;;;;;;;;;;;;;10.09;58.23;94831.31;5050659;28;20040;-66
2022/11/20 01:57:10;;;;;;;;;;;;;;;9.60;58.70;94827.81;5051788;28;20009;-66
2022/11/20 01:59:38;;;;;;;;;;;;;;;9.63;59.29;94832.53;5050927;28;20005;-66
2022/11/20 02:02:04;;;;;;;;;;;;;;;9.96;58.60;94829.53;5051737;28;20006;-66
2022/11/20 02:04:30;;;;;;;;;;;;;;;9.36;60.00;94827.34;5051920;28;20009;-66
2022/11/20 02:06:59;;;;;;;;;;;;;;;9.35;60.48;94826.56;5050114;28;20321;-66
2022/11/20 02:09:24;;;;;;;;;;;;;;;9.68;59.38;94839.56;5051840;28;20009;-67
2022/11/20 02:11:50;;;;;;;;;;;;;;;9.75;59.21;94829.28;5051578;28;20120;-66
2022/11/20 02:14:15;;;;;;;;;;;;;;;9.04;60.74;94834.47;5038182;28;20016;-66
2022/11/20 02:16:44;;;;;;;;;;;;;;;9.14;61.00;94832.69;5029555;28;20010;-66
2022/11/20 02:19:16;;;;;;;;;;;;;;;8.77;61.98;94837.22;5031649;28;20722;-66
2022/11/20 02:21:54;;;;;;;;;;;;;;;9.04;61.39;94836.34;5031462;28;20010;-66
2022/11/20 02:24:21;;;;;;;;;;;;;;;8.72;62.66;94835.47;5036665;28;20009;-65
2022/11/20 02:26:50;;;;;;;;;;;;;;;9.27;60.25;94832.63;5049534;28;20473;-66
2022/11/20 02:29:17;;;;;;;;;;;;;;;8.68;61.83;94834.50;5051361;28;20469;-66
2022/11/20 02:31:43;;;;;;;;;;;;;;;8.37;63.39;94844.19;5051191;28;20005;-66
2022/11/20 02:34:08;;;;;;;;;;;;;;;8.97;61.20;94831.47;5051275;28;20370;-66
2022/11/20 02:36:35;;;;;;;;;;;;;;;9.30;61.13;94828.56;5043846;28;20394;-66
2022/11/20 02:39:01;;;;;;;;;;;;;;;9.93;59.15;94830.16;5030895;28;20002;-66
2022/11/20 02:41:33;;;;;;;;;;;;;;;9.04;59.99;94837.13;5031063;28;20010;-66
2022/11/20 02:43:58;;;;;;;;;;;;;;;9.18;60.06;94836.31;5031417;28;20371;-66
2022/11/20 02:46:23;;;;;;;;;;;;;;;8.97;61.00;94833.34;5029261;28;20014;-66
2022/11/20 02:48:49;;;;;;;;;;;;;;;9.09;59.98;94830.94;5035749;28;20116;-67
2022/11/20 02:51:14;;;;;;;;;;;;;;;8.74;61.23;94838.59;5049991;28;20143;-66
2022/11/20 02:53:39;;;;;;;;;;;;;;;9.05;61.02;94832.59;5050855;28;20096;-66
2022/11/20 02:56:04;;;;;;;;;;;;;;;8.49;62.32;94839.16;5049346;28;20009;-65
2022/11/20 02:58:30;;;;;;;;;;;;;;;9.34;60.21;94830.31;5050674;28;20467;-65
2022/11/20 03:00:55;;;;;;;;;;;;;;;8.77;61.73;94835.38;5040824;28;20061;-64
2022/11/20 03:03:20;;;;;;;;;;;;;;;8.79;61.07;94838.50;5030827;28;20013;-65
2022/11/20 03:05:45;;;;;;;;;;;;;;;9.06;60.60;94834.97;5029134;28;20010;-65
2022/11/20 03:08:10;;;;;;;;;;;;;;;8.88;60.95;94829.84;5030609;28;20010;-65
2022/11/20 03:10:36;;;;;;;;;;;;;;;8.72;61.45;94832.81;5028958;28;20016;-65
2022/11/20 03:13:01;;;;;;;;;;;;;;;8.94;60.63;94831.28;5039787;28;20021;-65
2022/11/20 03:15:26;;;;;;;;;;;;;;;9.52;58.67;94833.88;5050068;28;20013;-65
2022/11/20 03:17:55;;;;;;;;;;;;;;;8.97;59.77;94830.69;5050316;28;20013;-65
2022/11/20 03:20:20;;;;;;;;;;;;;;;8.91;60.15;94834.56;5049884;28;20009;-65
2022/11/20 03:22:45;;;;;;;;;;;;;;;9.00;59.71;94830.84;5048994;28;20028;-65
2022/11/20 03:25:10;;;;;;;;;;;;;;;9.16;59.95;94827.84;5048442;28;20025;-65
2022/11/20 03:27:35;;;;;;;;;;;;;;;8.82;60.55;94822.00;5050306;28;20371;-66
2022/11/20 03:30:01;;;;;;;;;;;;;;;9.56;58.88;94826.84;5050073;28;20009;-65
2022/11/20 03:32:26;;;;;;;;;;;;;;;8.73;60.20;94831.75;5049219;28;20028;-66
2022/11/20 03:34:51;;;;;;;;;;;;;;;9.04;60.19;94821.22;5048185;28;20017;-65
2022/11/20 03:37:17;;;;;;;;;;;;;;;9.41;58.97;94829.88;5050152;28;20012;-66
2022/11/20 03:39:42;;;;;;;;;;;;;;;9.23;58.68;94825.56;5048737;28;20010;-67
2022/11/20 03:42:44;;;;;;;;;;;;;;;9.04;59.57;94826.53;5050207;28;20006;-67
2022/11/20 03:44:53;;;;;;;;;;;;;;;9.13;58.97;94828.47;5029686;28;20117;-67
2022/11/20 03:47:18;;;;;;;;;;;;;;;8.71;60.75;94828.63;5030274;28;20469;-68
2022/11/20 03:49:44;;;;;;;;;;;;;;;9.23;59.20;94825.56;5029865;28;20014;-66
2022/11/20 03:52:09;;;;;;;;;;;;;;;8.93;60.18;94825.19;5028715;28;20009;-65
2022/11/20 03:54:34;;;;;;;;;;;;;;;9.38;58.61;94825.19;5028948;28;20097;-65
2022/11/20 03:56:59;;;;;;;;;;;;;;;8.47;61.06;94834.16;5029586;28;20034;-65
2022/11/20 03:59:24;;;;;;;;;;;;;;;8.75;60.01;94837.53;5028567;28;20109;-65
2022/11/20 04:01:50;;;;;;;;;;;;;;;8.56;61.27;94835.03;5028413;28;20105;-64
2022/11/20 04:04:15;;;;;;;;;;;;;;;8.75;60.52;94834.88;5028557;28;20104;-65
2022/11/20 04:06:41;;;;;;;;;;;;;;;8.79;60.78;94838.50;5034977;28;20005;-65
2022/11/20 04:09:06;;;;;;;;;;;;;;;8.75;59.95;94836.72;5049712;28;20006;-65
2022/11/20 04:11:33;;;;;;;;;;;;;;;9.40;58.73;94838.16;5049480;28;20006;-65
2022/11/20 04:13:59;;;;;;;;;;;;;;;9.00;59.01;94828.19;5049842;28;20478;-65
2022/11/20 04:16:25;;;;;;;;;;;;;;;9.00;59.35;94835.38;5048355;28;20018;-65
2022/11/20 04:18:55;;;;;;;;;;;;;;;9.37;58.85;94827.06;5048204;28;20013;-65
2022/11/20 04:21:20;;;;;;;;;;;;;;;8.74;59.93;94833.31;5049445;28;20016;-66
2022/11/20 04:23:45;;;;;;;;;;;;;;;9.19;58.69;94825.38;5053517;28;20005;-65
2022/11/20 04:26:11;;;;;;;;;;;;;;;9.53;57.43;94830.13;5052216;28;20010;-64
2022/11/20 04:28:37;;;;;;;;;;;;;;;9.27;58.36;94829.19;5053770;28;20692;-66
2022/11/20 04:31:06;;;;;;;;;;;;;;;9.28;58.27;94834.19;5053467;28;20006;-65
2022/11/20 04:33:32;;;;;;;;;;;;;;;9.93;57.42;94830.16;5045572;28;20394;-65
2022/11/20 04:36:24;;;;;;;;;;;;;;;9.84;56.84;94834.66;5033299;28;20012;-65
2022/11/20 04:38:55;;;;;;;;;;;;;;;9.74;56.95;94838.34;5030155;28;20013;-66
2022/11/20 04:41:21;;;;;;;;;;;;;;;10.24;56.10;94835.44;5033524;28;20017;-65
2022/11/20 04:43:49;;;;;;;;;;;;;;;10.28;55.07;94840.91;5041992;28;20010;-66
2022/11/20 04:46:15;;;;;;;;;;;;;;;10.26;55.99;94837.78;5052869;28;20063;-65
2022/11/20 04:48:40;;;;;;;;;;;;;;;10.07;56.16;94830.81;5053032;28;20002;-65
2022/11/20 04:51:06;;;;;;;;;;;;;;;9.98;56.58;94838.00;5053166;28;20013;-66
2022/11/20 04:53:32;;;;;;;;;;;;;;;10.29;55.45;94837.97;5052971;28;20657;-65
2022/11/20 04:56:01;;;;;;;;;;;;;;;10.10;55.84;94840.06;5042014;28;20014;-66
2022/11/20 04:58:26;;;;;;;;;;;;;;;10.22;56.24;94836.81;5033275;28;20010;-66
2022/11/20 05:00:51;;;;;;;;;;;;;;;9.56;57.08;94840.13;5032876;28;20006;-66
2022/11/20 05:03:17;;;;;;;;;;;;;;;9.74;56.82;94838.34;5033214;28;20010;-65
2022/11/20 05:05:42;;;;;;;;;;;;;;;10.01;55.84;94836.56;5032598;28;20012;-65
2022/11/20 05:08:08;;;;;;;;;;;;;;;9.84;56.97;94835.44;5041616;28;20021;-65
2022/11/20 05:10:33;;;;;;;;;;;;;;;9.74;56.91;94827.72;5032767;28;20355;-66
2022/11/20 05:12:58;;;;;;;;;;;;;;;9.76;57.56;94835.38;5032747;28;20018;-65
2022/11/20 05:15:24;;;;;;;;;;;;;;;9.92;56.70;94833.88;5032456;28;20010;-65
2022/11/20 05:17:50;;;;;;;;;;;;;;;9.88;56.78;94839.03;5032898;28;20068;-66
2022/11/20 05:20:15;;;;;;;;;;;;;;;9.71;57.17;94836.28;5046155;28;20466;-65
2022/11/20 05:22:40;;;;;;;;;;;;;;;9.61;57.05;94837.34;5051074;28;20396;-65
2022/11/20 05:25:06;;;;;;;;;;;;;;;9.30;58.04;94839.19;5052391;28;20056;-65
2022/11/20 05:27:31;;;;;;;;;;;;;;;9.19;57.84;94833.34;5052590;28;20038;-66
2022/11/20 05:29:56;;;;;;;;;;;;;;;9.32;57.79;94845.78;5052591;28;20013;-65
2022/11/20 05:32:25;;;;;;;;;;;;;;;9.18;58.24;94842.38;5051130;28;20485;-66
2022/11/20 05:34:50;;;;;;;;;;;;;;;8.92;59.18;94834.25;5051882;28;20064;-65
2022/11/20 05:37:15;;;;;;;;;;;;;;;9.14;58.25;94841.41;5052171;28;20005;-66
2022/11/20 05:39:40;;;;;;;;;;;;;;;9.33;58.55;94839.38;5051270;28;20012;-66
2022/11/20 05:44:50;;;;;;;;;;;;;;;9.28;57.84;94841.38;5051888;28;20008;-66
2022/11/20 05:47:15;;;;;;;;;;;;;;;9.45;57.75;94844.13;5051931;28;20010;-65
2022/11/20 05:49:40;;;;;;;;;;;;;;;9.36;57.67;94843.28;5043202;28;20059;-66
2022/11/20 05:52:05;;;;;;;;;;;;;;;9.29;58.12;94841.06;5032056;28;20012;-66
2022/11/20 05:54:31;;;;;;;;;;;;;;;9.50;57.63;94843.22;5032066;28;20020;-65
2022/11/20 05:56:56;;;;;;;;;;;;;;;9.55;56.89;94840.44;5031690;28;20081;-65
2022/11/20 05:59:21;;;;;;;;;;;;;;;10.01;55.42;94841.91;5032018;28;20460;-65
2022/11/20 06:01:46;;;;;;;;;;;;;;;9.79;55.66;94835.56;5038040;28;20018;-65
2022/11/20 06:04:11;;;;;;;;;;;;;;;9.96;55.66;94845.47;5051936;28;20492;-65
2022/11/20 06:06:37;;;;;;;;;;;;;;;10.07;55.19;94836.13;5051399;28;20067;-65
2022/11/20 06:09:02;;;;;;;;;;;;;;;10.08;55.10;94850.19;5051775;28;20009;-65
2022/11/20 06:11:27;;;;;;;;;;;;;;;9.95;55.25;94846.56;5051653;28;20005;-65
2022/11/20 06:13:52;;;;;;;;;;;;;;;9.44;56.52;94841.78;5050743;28;20474;-65
2022/11/20 06:16:19;;;;;;;;;;;;;;;9.16;56.23;94841.09;5050389;28;20067;-65
2022/11/20 06:18:44;;;;;;;;;;;;;;;8.91;57.08;94842.50;5051332;28;20013;-65
2022/11/20 06:21:11;;;;;;;;;;;;;;;9.10;56.92;94837.78;5051680;28;20009;-65
2022/11/20 06:23:36;;;;;;;;;;;;;;;8.56;57.70;94840.31;5051325;28;20041;-66
2022/11/20 06:26:02;;;;;;;;;;;;;;;8.94;57.35;94841.88;5050078;28;20045;-65
2022/11/20 06:28:28;;;;;;;;;;;;;;;9.13;56.04;94841.72;5051372;28;20098;-65
2022/11/20 06:30:53;;;;;;;;;;;;;;;8.99;56.09;94836.47;5050885;28;20060;-66
2022/11/20 06:33:18;;;;;;;;;;;;;;;8.44;57.08;94849.84;5051094;28;20523;-65
2022/11/20 06:35:43;;;;;;;;;;;;;;;8.53;57.03;94848.88;5050759;28;20568;-65
2022/11/20 06:38:09;;;;;;;;;;;;;;;8.41;57.21;94847.81;5050421;28;20021;-65
2022/11/20 06:40:34;;;;;;;;;;;;;;;8.51;56.74;94851.03;5050990;28;20010;-65
2022/11/20 06:42:59;;;;;;;;;;;;;;;8.37;56.64;94852.91;5051087;28;20445;-65
2022/11/20 06:45:24;;;;;;;;;;;;;;;8.68;56.18;94862.88;5048768;28;20035;-66
2022/11/20 06:47:50;;;;;;;;;;;;;;;9.20;54.99;94861.44;5031276;28;20006;-66
2022/11/20 06:50:15;;;;;;;;;;;;;;;8.76;55.53;94862.97;5031139;28;20014;-67
2022/11/20 06:52:40;;;;;;;;;;;;;;;8.86;55.71;94864.63;5030877;28;20100;-65
2022/11/20 06:55:06;;;;;;;;;;;;;;;9.36;54.95;94859.19;5030669;28;20377;-67
2022/11/20 06:57:31;;;;;;;;;;;;;;;9.45;54.35;94870.66;5048126;28;20450;-66
2022/11/20 06:59:57;;;;;;;;;;;;;;;9.71;53.78;94872.69;5050938;28;20005;-67
2022/11/20 07:02:22;;;;;;;;;;;;;;;10.18;53.24;94873.84;5050648;28;20049;-66
2022/11/20 07:04:47;;;;;;;;;;;;;;;10.34;52.56;94875.03;5050380;28;20082;-66
2022/11/20 07:07:12;;;;;;;;;;;;;;;10.40;52.09;94881.78;5049216;28;20059;-66
2022/11/20 07:09:37;;;;;;;;;;;;;;;10.65;51.30;94874.97;5050596;28;20382;-66
2022/11/20 07:12:03;;;;;;;;;;;;;;;10.59;51.62;94878.06;5048960;28;20433;-67
2022/11/20 07:14:28;;;;;;;;;;;;;;;10.74;51.17;94876.84;5050463;28;20108;-65
2022/11/20 07:16:53;;;;;;;;;;;;;;;10.87;50.75;94879.38;5048378;28;20172;-65
2022/11/20 07:19:19;;;;;;;;;;;;;;;10.98;50.87;94881.72;5048833;28;20466;-68
2022/11/20 07:21:44;;;;;;;;;;;;;;;11.01;49.76;94884.56;5048481;28;20448;-66
2022/11/20 07:24:09;;;;;;;;;;;;;;;11.11;50.72;94888.78;5050279;28;20005;-67
2022/11/20 07:26:35;;;;;;;;;;;;;;;11.13;50.25;94886.59;5049843;28;20009;-68
2022/11/20 07:29:00;;;;;;;;;;;;;;;10.93;50.57;94880.00;5049975;28;20006;-66
2022/11/20 07:31:26;;;;;;;;;;;;;;;10.82;50.05;94889.38;5049105;28;20370;-66
2022/11/20 07:33:51;;;;;;;;;;;;;;;10.13;52.31;94890.72;5050073;28;20010;-67
2022/11/20 07:36:16;;;;;;;;;;;;;;;10.59;52.14;94883.38;5049651;28;20101;-65
2022/11/20 07:38:41;;;;;;;;;;;;;;;10.82;51.79;94887.50;5050014;28;20051;-66
2022/11/20 07:41:07;;;;;;;;;;;;;;;10.86;51.17;94882.34;5050047;28;20016;-66
2022/11/20 07:43:32;;;;;;;;;;;;;;;10.75;51.54;94884.53;5046278;28;20084;-66
2022/11/20 07:45:58;;;;;;;;;;;;;;;10.86;51.13;94885.00;5029753;28;20010;-66
2022/11/20 07:48:24;;;;;;;;;;;;;;;11.09;51.25;94882.97;5029924;28;20459;-67
2022/11/20 07:50:49;;;;;;;;;;;;;;;11.13;50.52;94892.69;5029825;28;20010;-66
2022/11/20 07:53:20;;;;;;;;;;;;;;;11.01;50.92;94889.88;5042250;28;20017;-66
2022/11/20 07:55:45;;;;;;;;;;;;;;;11.16;50.55;94883.31;5049322;28;20006;-66
2022/11/20 07:58:10;;;;;;;;;;;;;;;11.18;49.91;94883.75;5049327;28;20744;-66
2022/11/20 08:00:36;;;;;;;;;;;;;;;10.81;50.75;94891.25;5048237;28;20041;-66
2022/11/20 08:03:03;;;;;;;;;;;;;;;10.75;50.63;94889.03;5048804;28;20014;-66
2022/11/20 08:05:28;;;;;;;;;;;;;;;10.91;50.31;94890.97;5049460;28;20088;-67
2022/11/20 08:07:53;;;;;;;;;;;;;;;11.36;49.92;94890.66;5049559;28;20490;-66
2022/11/20 08:10:18;;;;;;;;;;;;;;;11.18;50.22;94897.84;5048302;28;20097;-67
2022/11/20 08:15:31;;;;;;;;;;;;;;;10.30;51.01;94902.53;5048656;28;20074;-65
2022/11/20 08:18:15;;;;;;;;;;;;;;;10.75;51.24;94899.69;5049687;28;20096;-66
2022/11/20 08:20:40;;;;;;;;;;;;;;;10.22;52.38;94906.69;5049665;28;20059;-66
2022/11/20 08:23:06;;;;;;;;;;;;;;;10.68;51.10;94895.59;5038778;28;20048;-66
2022/11/20 08:25:32;;;;;;;;;;;;;;;11.02;50.91;94907.41;5029154;28;20006;-66
2022/11/20 08:27:58;;;;;;;;;;;;;;;10.73;50.64;94899.22;5029869;28;20502;-66
2022/11/20 08:30:24;;;;;;;;;;;;;;;10.71;51.33;94904.84;5029600;28;20006;-66
2022/11/20 08:32:49;;;;;;;;;;;;;;;10.26;52.29;94905.03;5036468;28;20014;-69
2022/11/20 08:35:16;;;;;;;;;;;;;;;10.86;51.48;94907.06;5050088;28;20381;-68
2022/11/20 08:37:41;;;;;;;;;;;;;;;11.35;51.67;94898.94;5049871;28;20108;-68
2022/11/20 08:40:11;;;;;;;;;;;;;;;11.68;49.79;94897.34;5049549;28;20413;-68
2022/11/20 08:42:36;;;;;;;;;;;;;;;11.82;49.71;94896.41;5049334;28;20006;-68
2022/11/20 08:45:01;;;;;;;;;;;;;;;12.12;48.24;94895.38;5049247;28;20067;-67
2022/11/20 08:47:26;;;;;;;;;;;;;;;11.77;48.09;94892.00;5034617;28;20059;-68
2022/11/20 08:49:52;;;;;;;;;;;;;;;11.03;48.89;94903.66;5047739;28;20013;-68
2022/11/20 08:52:17;;;;;;;;;;;;;;;10.71;50.60;94893.44;5048179;28;20033;-67
2022/11/20 08:54:43;;;;;;;;;;;;;;;10.36;50.50;94899.44;5045126;28;20020;-71
2022/11/20 08:57:08;;;;;;;;;;;;;;;9.63;53.10;94901.56;5048401;28;20404;-67
2022/11/20 08:59:33;;;;;;;;;;;;;;;11.07;50.36;94898.50;5048495;28;20088;-66
2022/11/20 09:01:58;;;;;;;;;;;;;;;10.96;49.68;94898.00;5047390;28;20013;-66
2022/11/20 09:04:24;;;;;;;;;;;;;;;11.19;49.21;94893.31;5047824;28;20021;-67
2022/11/20 09:06:50;;;;;;;;;;;;;;;10.39;51.05;94898.81;5047711;28;20057;-66
2022/11/20 09:09:16;;;;;;;;;;;;;;;10.83;49.70;94893.59;5051674;28;20010;-65
2022/11/20 09:11:42;;;;;;;;;;;;;;;10.29;50.57;94891.13;5051408;28;20005;-67
2022/11/20 09:14:07;;;;;;;;;;;;;;;11.02;48.85;94890.66;5052110;28;20017;-67
2022/11/20 09:16:32;;;;;;;;;;;;;;;11.57;47.48;94885.47;5051606;28;20013;-68
2022/11/20 09:18:58;;;;;;;;;;;;;;;10.15;49.52;94891.19;5050100;28;20053;-67
2022/11/20 09:21:24;;;;;;;;;;;;;;;11.01;49.23;94892.53;5052476;28;20014;-66
2022/11/20 09:23:49;;;;;;;;;;;;;;;10.99;49.29;94896.59;5051140;28;20020;-66
2022/11/20 09:26:14;;;;;;;;;;;;;;;11.12;48.41;94888.47;5051763;28;20085;-66
2022/11/20 09:28:40;;;;;;;;;;;;;;;11.10;48.02;94887.97;5040611;28;20536;-69
2022/11/20 09:31:09;;;;;;;;;;;;;;;11.62;47.12;94881.88;5040304;28;20106;-67
2022/11/20 09:33:35;;;;;;;;;;;;;;;11.38;48.32;94869.81;5050391;28;20112;-67
2022/11/20 09:36:00;;;;;;;;;;;;;;;11.70;47.29;94876.50;5041642;28;20108;-68
2022/11/20 09:38:25;;;;;;;;;;;;;;;11.20;47.52;94881.56;5031775;28;20010;-67
2022/11/20 09:40:53;;;;;;;;;;;;;;;11.27;47.33;94889.88;5044511;28;20018;-67
2022/11/20 09:43:37;;;;;;;;;;;;;;;11.27;46.96;94881.88;5051756;28;20006;-67
2022/11/20 09:46:17;;;;;;;;;;;;;;;11.29;46.86;94873.59;5050876;28;20104;-70
2022/11/20 09:48:53;;;;;;;;;;;;;;;10.83;48.00;94870.44;5050571;28;20041;-68
2022/11/20 09:51:33;;;;;;;;;;;;;;;11.69;46.43;94866.94;5051994;28;20036;-67
2022/11/20 09:54:14;;;;;;;;;;;;;;;12.06;45.61;94864.66;5052049;28;20013;-66
2022/11/20 09:56:41;;;;;;;;;;;;;;;12.59;44.61;94863.34;5039094;28;20014;-67
2022/11/20 09:59:07;;;;;;;;;;;;;;;10.74;47.50;94864.31;5056679;28;20009;-66
2022/11/20 10:01:35;;;;;;;;;;;;;;;11.82;46.37;94854.53;5053686;28;20059;-67
2022/11/20 10:04:03;;;;;;;;;;;;;;;10.64;48.52;94857.41;5051791;28;20020;-67
2022/11/20 10:06:41;;;;;;;;;;;;;;;11.49;46.90;94851.63;5040355;28;20022;-67
2022/11/20 10:09:10;;;;;;;;;;;;;;;12.49;44.96;94845.81;5044673;28;20059;-67
2022/11/20 10:11:44;;;;;;;;;;;;;;;12.67;44.83;94853.72;5052080;28;20378;-69
2022/11/20 10:14:15;;;;;;;;;;;;;;;11.46;46.23;94862.91;5050967;28;20508;-69
2022/11/20 10:16:59;;;;;;;;;;;;;;;11.73;46.25;94856.44;5050800;28;20095;-66
2022/11/20 10:19:33;;;;;;;;;;;;;;;11.84;45.62;94857.69;5047786;28;20013;-67
2022/11/20 10:22:05;;;;;;;;;;;;;;;10.78;48.42;94857.28;5047667;28;20405;-66
2022/11/20 10:24:33;;;;;;;;;;;;;;;10.88;48.68;94859.63;5050915;28;20100;-66
2022/11/20 10:27:17;;;;;;;;;;;;;;;11.12;47.48;94866.41;5050773;28;20005;-65
2022/11/20 10:29:44;;;;;;;;;;;;;;;11.85;46.37;94851.25;5051518;28;20006;-66
2022/11/20 10:32:11;;;;;;;;;;;;;;;11.28;47.05;94864.81;5049104;28;20014;-66
2022/11/20 10:34:42;;;;;;;;;;;;;;;10.50;48.67;94853.34;5050571;28;20016;-67
2022/11/20 10:37:15;;;;;;;;;;;;;;;11.65;46.86;94846.59;5048372;28;20014;-67
2022/11/20 10:40:03;;;;;;;;;;;;;;;11.19;47.00;94864.81;5051180;28;20037;-67
2022/11/20 10:42:37;;;;;;;;;;;;;;;11.20;47.00;94854.94;5039763;28;20021;-66
2022/11/20 10:45:13;;;;;;;;;;;;;;;10.59;48.16;94862.09;5049695;28;20009;-66
2022/11/20 10:47:38;;;;;;;;;;;;;;;12.12;45.20;94855.38;5049783;28;20010;-66
2022/11/20 10:50:05;;;;;;;;;;;;;;;10.79;47.67;94871.38;5050357;28;20016;-67
2022/11/20 10:52:50;;;;;;;;;;;;;;;10.74;49.34;94863.53;5050785;28;20466;-67
2022/11/20 10:55:21;;;;;;;;;;;;;;;10.49;48.52;94865.03;5048801;28;20064;-66
2022/11/20 10:58:06;;;;;;;;;;;;;;;10.61;48.60;94862.59;5049496;28;20010;-69
2022/11/20 11:00:32;;;;;;;;;;;;;;;10.20;49.33;94873.56;5049297;28;20489;-68
2022/11/20 11:03:02;;;;;;;;;;;;;;;10.80;48.79;94862.28;5050571;28;20012;-67
2022/11/20 11:05:31;;;;;;;;;;;;;;;11.13;47.72;94855.41;5048210;28;20093;-67
2022/11/20 11:07:57;;;;;;;;;;;;;;;10.68;48.87;94857.59;5049151;28;20531;-67
2022/11/20 11:10:23;;;;;;;;;;;;;;;10.43;48.58;94757.28;5048735;28;20049;-67
2022/11/20 11:12:48;;;;;;;;;;;;;;;10.79;48.92;94848.19;5048928;28;20014;-66
2022/11/20 11:15:29;;;;;;;;;;;;;;;10.02;50.34;94854.09;5049043;28;20017;-69
2022/11/20 11:17:55;;;;;;;;;;;;;;;10.44;49.63;94846.56;5049223;28;20411;-66
2022/11/20 11:20:21;;;;;;;;;;;;;;;9.96;51.50;94845.47;5048971;28;20017;-67
2022/11/20 11:22:52;;;;;;;;;;;;;;;10.28;50.95;94836.38;5048670;28;20037;-68
2022/11/20 11:25:20;;;;;;;;;;;;;;;9.41;52.12;94843.16;5048778;28;20017;-64
2022/11/20 11:27:47;;;;;;;;;;;;;;;8.98;53.64;94848.94;5048843;28;20390;-70
2022/11/20 11:30:14;;;;;;;;;;;;;;;9.66;51.70;94832.97;5049187;28;20013;-66
2022/11/20 11:32:39;;;;;;;;;;;;;;;10.59;49.63;94835.50;5048748;28;20010;-69
2022/11/20 11:35:06;;;;;;;;;;;;;;;10.23;51.04;94825.06;5049875;28;20014;-65
2022/11/20 11:37:35;;;;;;;;;;;;;;;10.40;50.38;94833.13;5048217;28;20014;-65
2022/11/20 11:40:01;;;;;;;;;;;;;;;10.85;48.51;94827.53;5050061;28;20009;-69
2022/11/20 11:42:27;;;;;;;;;;;;;;;11.13;48.65;94818.16;5050439;28;20012;-66
2022/11/20 11:45:06;;;;;;;;;;;;;;;10.33;50.03;94824.81;5048421;28;20100;-65
2022/11/20 11:47:31;;;;;;;;;;;;;;;10.48;49.90;94827.03;5050153;28;20080;-66
2022/11/20 11:50:09;;;;;;;;;;;;;;;10.08;50.92;94834.25;5031829;28;20010;-64
2022/11/20 11:52:46;;;;;;;;;;;;;;;9.47;52.23;94835.84;5028695;28;20105;-65
2022/11/20 11:55:20;;;;;;;;;;;;;;;10.03;51.77;94831.72;5028222;28;20021;-64
2022/11/20 11:57:46;;;;;;;;;;;;;;;9.76;51.10;94833.50;5028660;28;20032;-65
2022/11/20 12:00:21;;;;;;;;;;;;;;;9.66;51.50;94832.97;5030506;28;20021;-65
2022/11/20 12:02:49;;;;;;;;;;;;;;;9.75;51.68;94823.97;5049950;28;20350;-67
2022/11/20 12:05:17;;;;;;;;;;;;;;;9.77;51.77;94843.03;5049592;28;20010;-66
2022/11/20 12:07:45;;;;;;;;;;;;;;;9.51;53.76;94824.31;5048144;28;20092;-67
2022/11/20 12:10:29;;;;;;;;;;;;;;;9.96;54.19;94834.06;5048760;28;20096;-67
2022/11/20 12:12:58;;;;;;;;;;;;;;;8.76;56.74;94847.06;5047907;28;20104;-68
2022/11/20 12:15:29;;;;;;;;;;;;;;;8.76;57.12;94841.75;5049073;28;20024;-66
2022/11/20 12:17:55;;;;;;;;;;;;;;;8.76;56.18;94844.41;5050342;28;20210;-70
2022/11/20 12:20:22;;;;;;;;;;;;;;;8.99;55.84;94834.59;5046656;28;20021;-70
2022/11/20 12:23:03;;;;;;;;;;;;;;;8.92;57.11;94836.13;5048321;28;20045;-70
2022/11/20 12:25:34;;;;;;;;;;;;;;;9.16;57.94;94830.50;5049382;28;20015;-69
2022/11/20 12:28:10;;;;;;;;;;;;;;;8.53;58.99;94835.63;5047637;28;20013;-70
2022/11/20 12:30:47;;;;;;;;;;;;;;;8.03;60.15;94718.97;5049640;28;20005;-70
2022/11/20 12:33:22;;;;;;;;;;;;;;;8.23;60.22;94829.03;5049550;28;20009;-70
2022/11/20 12:36:06;;;;;;;;;;;;;;;8.45;60.35;94823.06;5049063;28;20485;-70
2022/11/20 12:38:49;;;;;;;;;;;;;;;8.49;59.91;94825.91;5047946;28;20013;-69
2022/11/20 12:47:11;;;;;;;;;;;;;;;8.91;58.63;94829.25;5052438;28;20382;-69
2022/11/20 12:49:55;;;;;;;;;;;;;;;9.19;58.24;94827.25;5052180;28;20013;-70
2022/11/20 12:52:29;;;;;;;;;;;;;;;8.80;58.54;94826.81;5037101;28;20014;-69
2022/11/20 12:54:54;;;;;;;;;;;;;;;8.76;59.56;94825.84;5052899;28;20093;-70
2022/11/20 12:57:19;;;;;;;;;;;;;;;9.81;56.24;94825.41;5053257;28;20072;-70
2022/11/20 12:59:51;;;;;;;;;;;;;;;9.54;55.97;94825.59;5052594;28;20467;-70
2022/11/20 13:02:30;;;;;;;;;;;;;;;10.27;55.88;94818.88;5053115;28;20015;-69
2022/11/20 13:04:58;;;;;;;;;;;;;;;9.99;55.21;94828.16;5052900;28;20006;-68
2022/11/20 13:07:24;;;;;;;;;;;;;;;9.41;57.30;94821.13;5053098;28;20010;-68
2022/11/20 13:09:50;;;;;;;;;;;;;;;9.98;56.01;94832.69;5052858;28;20482;-68